createdAt,value
2017-11-13T00:00:05.077Z,75.1
2017-11-13T00:15:05.249Z,75.3
2017-11-13T00:30:04.412Z,72.8
2017-11-13T00:45:04.490Z,71
2017-11-13T01:00:05.627Z,73.3
2017-11-13T01:30:05.286Z,73.9
2017-11-13T01:45:04.841Z,74
2017-11-13T02:00:04.915Z,74
2017-11-13T02:15:04.825Z,75
2017-11-13T02:30:04.553Z,75.6
2017-11-13T02:45:05.499Z,74.7
2017-11-13T03:00:05.621Z,75.4
2017-11-13T03:15:05.979Z,75.6
2017-11-13T03:30:06.276Z,75.8
2017-11-13T03:45:05.204Z,75.9
2017-11-13T04:00:04.590Z,77.2
2017-11-13T04:15:05.001Z,76.3
2017-11-13T04:30:04.669Z,76.3
2017-11-13T04:45:04.583Z,76.1
2017-11-13T05:00:04.483Z,76
2017-11-13T05:15:05.444Z,77.5
2017-11-13T05:30:04.759Z,77
2017-11-13T05:45:04.673Z,76.1
2017-11-13T06:00:08.263Z,75.2
2017-11-13T06:15:05.165Z,74.9
2017-11-13T06:30:04.290Z,75.4
2017-11-13T06:45:05.201Z,75.6
2017-11-13T07:00:06.520Z,75.9
2017-11-13T07:15:05.492Z,75.8
2017-11-13T07:30:05.820Z,74.9
2017-11-13T07:45:04.296Z,75.4
2017-11-13T08:00:05.868Z,75.2
2017-11-13T08:15:05.860Z,75.5
2017-11-13T08:30:04.417Z,74
2017-11-13T08:45:04.318Z,73.7
2017-11-13T09:00:36.908Z,72.3
2017-11-13T09:15:06.421Z,73.5
2017-11-13T09:30:04.557Z,72.3
2017-11-13T09:45:04.952Z,72.1
2017-11-13T10:00:11.848Z,70.6
2017-11-13T10:15:05.505Z,70.6
2017-11-13T10:30:04.284Z,68.2
2017-11-13T10:45:05.394Z,68
2017-11-13T11:00:05.203Z,70.8
2017-11-13T11:15:36.759Z,67.4
2017-11-13T11:30:04.470Z,68
2017-11-13T11:45:05.432Z,66.9
2017-11-13T12:00:04.590Z,60.5
2017-11-13T12:15:20.096Z,63.2
2017-11-13T12:30:04.436Z,64.2
2017-11-13T12:45:05.590Z,63
2017-11-13T13:00:05.029Z,62.5
2017-11-13T13:15:10.828Z,64
2017-11-13T13:30:04.955Z,63.1
2017-11-13T13:45:04.798Z,62.1
2017-11-13T14:00:04.780Z,62.1
2017-11-13T14:15:06.149Z,61.6
2017-11-13T14:30:04.284Z,62.1
2017-11-13T14:45:05.700Z,62.2
2017-11-13T15:00:06.248Z,64.5
2017-11-13T15:15:06.198Z,62.5
2017-11-13T15:30:05.956Z,62.9
2017-11-13T15:45:08.044Z,62.1
2017-11-13T16:00:04.973Z,64
2017-11-13T16:15:04.844Z,67.8
2017-11-13T16:30:05.822Z,69.8
2017-11-13T16:45:05.001Z,70.1
2017-11-13T17:00:04.505Z,71.2
2017-11-13T17:15:04.597Z,71.4
2017-11-13T17:30:05.285Z,72
2017-11-13T17:45:04.774Z,71.6
2017-11-13T18:00:04.746Z,72.9
2017-11-13T18:15:05.273Z,72.8
2017-11-13T18:30:04.462Z,72
2017-11-13T18:45:07.881Z,73.2
2017-11-13T19:00:05.418Z,73.8
2017-11-13T19:15:08.014Z,74.9
2017-11-13T19:30:05.205Z,74.8
2017-11-13T19:45:05.106Z,75.5
2017-11-13T20:00:06.012Z,75.2
2017-11-13T20:15:05.014Z,76.1
2017-11-13T20:30:05.732Z,75.6
2017-11-13T20:45:07.931Z,75.7
2017-11-13T21:00:04.876Z,75.2
2017-11-13T21:15:04.619Z,75.2
2017-11-13T21:30:05.537Z,75.8
2017-11-13T21:45:05.971Z,75.6
2017-11-13T22:00:04.561Z,75.6
2017-11-13T22:15:04.651Z,75
2017-11-13T22:30:04.479Z,75.6
2017-11-13T22:45:11.886Z,76.1
2017-11-13T23:00:07.356Z,76.6
2017-11-13T23:15:06.541Z,76.8
2017-11-13T23:30:05.166Z,77.2
2017-11-13T23:45:05.238Z,76.8
